Terminal Aerodrome Forecast
Issued by NWS Rapid City, SD

Home | Current Version | Previous Version | Graphics & Text | Print | Product List | Glossary On
Versions: 1 2 3 4 5 6 7 8 9 10 11 12 13 14 15 16 17 18
727
FTUS43 KUNR 180520
TAFRAP
TAF
KRAP 180520Z 1806/1906 16008KT P6SM OVC100 WS020/26045KT
     FM181300 34015G25KT P6SM BKN025 BKN050
     FM182100 36015G25KT 1SM -SN VV006=

USA.gov is the U.S. government's official web portal to all federal, state and local government web resources and services.